createdAt,value
2023-08-25T00:02:23.498Z,100.00
2023-08-25T00:04:50.449Z,100.00
2023-08-25T00:07:17.126Z,100.00
2023-08-25T00:09:47.048Z,100.00
2023-08-25T00:12:13.734Z,100.00
2023-08-25T00:14:40.264Z,100.00
2023-08-25T00:17:07.146Z,98.54
2023-08-25T00:19:34.313Z,91.68
2023-08-25T00:22:00.990Z,91.12
2023-08-25T00:24:27.530Z,96.05
2023-08-25T00:26:54.215Z,100.00
2023-08-25T00:29:21.469Z,100.00
2023-08-25T00:31:48.127Z,100.00
2023-08-25T00:34:14.705Z,100.00
2023-08-25T00:36:41.522Z,100.00
2023-08-25T00:39:08.619Z,96.15
2023-08-25T00:41:35.310Z,95.43
2023-08-25T00:44:01.889Z,97.12
2023-08-25T00:46:28.650Z,98.29
2023-08-25T00:48:56.353Z,97.89
2023-08-25T00:51:23.675Z,100.00
2023-08-25T00:53:51.006Z,100.00
2023-08-25T00:56:19.052Z,100.00
2023-08-25T00:58:46.177Z,100.00
2023-08-25T01:01:13.502Z,100.00
2023-08-25T01:03:40.655Z,100.00
2023-08-25T01:06:10.107Z,100.00
2023-08-25T01:08:38.578Z,100.00
2023-08-25T01:11:29.923Z,100.00
2023-08-25T01:14:02.964Z,100.00
2023-08-25T01:16:33.055Z,100.00
2023-08-25T01:19:01.830Z,100.00
2023-08-25T01:21:28.784Z,100.00
2023-08-25T01:24:17.478Z,100.00
2023-08-25T01:26:44.837Z,100.00
2023-08-25T01:29:11.475Z,100.00
2023-08-25T01:31:37.973Z,100.00
2023-08-25T01:34:04.775Z,100.00
2023-08-25T01:36:41.145Z,98.50
2023-08-25T01:39:15.165Z,100.00
2023-08-25T01:41:47.673Z,98.46
2023-08-25T01:44:17.882Z,99.71
2023-08-25T01:46:50.216Z,99.14
2023-08-25T01:49:18.397Z,97.58
2023-08-25T01:51:46.285Z,88.76
2023-08-25T01:54:14.775Z,86.99
2023-08-25T01:56:41.574Z,86.92
2023-08-25T01:59:08.270Z,92.51
2023-08-25T02:01:34.905Z,95.43
2023-08-25T02:04:01.591Z,98.87
2023-08-25T02:06:28.729Z,100.00
2023-08-25T02:08:55.455Z,100.00
2023-08-25T02:11:21.987Z,100.00
2023-08-25T02:13:49.019Z,100.00
2023-08-25T02:16:16.191Z,100.00
2023-08-25T02:18:43.022Z,100.00
2023-08-25T02:21:09.544Z,100.00
2023-08-25T02:23:36.241Z,100.00
2023-08-25T02:26:03.181Z,100.00
2023-08-25T02:28:29.875Z,100.00
2023-08-25T02:30:56.358Z,100.00
2023-08-25T02:33:23.039Z,100.00
2023-08-25T02:35:49.718Z,100.00
2023-08-25T02:38:16.473Z,100.00
2023-08-25T02:40:43.639Z,100.00
2023-08-25T02:43:10.413Z,100.00
2023-08-25T02:45:37.684Z,100.00
2023-08-25T02:48:05.058Z,100.00
2023-08-25T02:50:31.980Z,100.00
2023-08-25T02:52:58.622Z,100.00
2023-08-25T02:55:25.433Z,100.00
2023-08-25T02:57:53.454Z,100.00
2023-08-25T03:00:24.776Z,100.00
2023-08-25T03:02:52.677Z,100.00
2023-08-25T03:05:19.868Z,100.00
2023-08-25T03:07:46.732Z,100.00
2023-08-25T03:10:13.569Z,100.00
2023-08-25T03:12:40.918Z,100.00
2023-08-25T03:15:08.509Z,100.00
2023-08-25T03:17:35.514Z,100.00
2023-08-25T03:20:03.907Z,100.00
2023-08-25T03:22:30.895Z,100.00
2023-08-25T03:24:57.550Z,100.00
2023-08-25T03:27:24.115Z,100.00
2023-08-25T03:29:50.751Z,100.00
2023-08-25T03:32:17.417Z,100.00
2023-08-25T03:34:43.931Z,100.00
2023-08-25T03:37:12.839Z,100.00
2023-08-25T03:39:39.896Z,100.00
2023-08-25T03:42:07.004Z,100.00
2023-08-25T03:44:33.712Z,100.00
2023-08-25T03:47:00.286Z,100.00
2023-08-25T03:49:29.531Z,100.00
2023-08-25T03:51:57.585Z,100.00
2023-08-25T03:54:24.397Z,100.00
2023-08-25T03:56:51.117Z,100.00
2023-08-25T03:59:17.865Z,100.00
2023-08-25T04:01:44.417Z,100.00
2023-08-25T04:04:11.030Z,99.51
2023-08-25T04:06:37.676Z,98.80
2023-08-25T04:09:04.292Z,98.66
2023-08-25T04:11:31.021Z,98.42
2023-08-25T04:13:57.671Z,96.89
2023-08-25T04:16:24.365Z,95.96
2023-08-25T04:18:51.127Z,96.05
2023-08-25T04:21:17.780Z,95.95
2023-08-25T04:23:44.393Z,95.06
2023-08-25T04:26:11.061Z,95.94
2023-08-25T04:28:37.580Z,96.09
2023-08-25T04:31:04.286Z,96.27
2023-08-25T04:33:30.819Z,95.51
2023-08-25T04:35:57.434Z,95.93
2023-08-25T04:38:24.229Z,96.20
2023-08-25T04:40:50.920Z,96.52
2023-08-25T04:43:17.440Z,96.34
2023-08-25T04:45:44.205Z,96.89
2023-08-25T04:48:11.002Z,96.01
2023-08-25T04:50:37.707Z,94.81
2023-08-25T04:53:04.447Z,93.43
2023-08-25T04:55:31.422Z,93.06
2023-08-25T04:57:58.085Z,93.18
2023-08-25T05:00:24.658Z,93.31
2023-08-25T05:02:51.489Z,93.49
2023-08-25T05:05:18.846Z,93.60
2023-08-25T05:07:46.536Z,93.84
2023-08-25T05:10:13.512Z,90.25
2023-08-25T05:12:41.279Z,89.94
2023-08-25T05:15:09.125Z,92.17
2023-08-25T05:17:35.830Z,93.73
2023-08-25T05:20:02.519Z,93.76
2023-08-25T05:22:29.172Z,93.02
2023-08-25T05:24:55.769Z,93.49
2023-08-25T05:27:22.481Z,94.32
2023-08-25T05:29:49.670Z,94.45
2023-08-25T05:32:16.363Z,94.76
2023-08-25T05:34:43.145Z,94.97
2023-08-25T05:37:09.663Z,94.22
2023-08-25T05:39:36.314Z,92.49
2023-08-25T05:42:02.948Z,93.05
2023-08-25T05:44:29.596Z,91.90
2023-08-25T05:46:56.112Z,91.89
2023-08-25T05:49:22.750Z,91.65
2023-08-25T05:51:50.948Z,91.47
2023-08-25T05:54:17.628Z,90.30
2023-08-25T05:56:45.229Z,90.04
2023-08-25T05:59:11.895Z,88.20
2023-08-25T06:01:38.573Z,87.63
2023-08-25T06:04:05.826Z,87.29
2023-08-25T06:06:32.478Z,87.03
2023-08-25T06:08:59.206Z,85.16
2023-08-25T06:11:26.201Z,84.67
2023-08-25T06:13:52.835Z,83.35
2023-08-25T06:16:19.905Z,81.83
2023-08-25T06:18:46.653Z,81.78
2023-08-25T06:21:13.445Z,82.32
2023-08-25T06:23:40.099Z,82.81
2023-08-25T06:26:07.658Z,84.71
2023-08-25T06:28:34.880Z,84.90
2023-08-25T06:31:01.893Z,84.84
2023-08-25T06:33:31.213Z,83.49
2023-08-25T06:35:58.510Z,83.44
2023-08-25T06:38:25.177Z,84.58
2023-08-25T06:40:53.592Z,83.60
2023-08-25T06:43:20.362Z,81.31
2023-08-25T06:45:47.772Z,74.36
2023-08-25T06:48:14.758Z,64.50
2023-08-25T06:50:41.990Z,56.14
2023-08-25T06:53:09.021Z,52.76
2023-08-25T06:55:36.353Z,49.16
2023-08-25T06:58:04.053Z,42.77
2023-08-25T07:00:30.822Z,41.48
2023-08-25T07:02:57.568Z,39.47
2023-08-25T07:05:25.180Z,36.59
2023-08-25T07:07:55.014Z,36.41
2023-08-25T07:10:22.043Z,36.84
2023-08-25T07:12:48.748Z,37.20
2023-08-25T07:15:15.516Z,40.32
2023-08-25T07:17:42.321Z,44.27
2023-08-25T07:20:10.056Z,45.37
2023-08-25T07:22:36.794Z,46.09
2023-08-25T07:25:03.717Z,46.86
2023-08-25T07:27:31.113Z,48.57
2023-08-25T07:29:59.521Z,48.57
2023-08-25T07:32:28.516Z,48.01
2023-08-25T07:34:56.735Z,49.60
2023-08-25T07:37:23.677Z,51.02
2023-08-25T07:39:52.403Z,51.55
2023-08-25T07:42:20.055Z,52.79
2023-08-25T07:44:48.416Z,54.39
2023-08-25T07:47:15.129Z,55.06
2023-08-25T07:49:42.006Z,55.57
2023-08-25T07:52:08.717Z,54.87
2023-08-25T07:54:35.371Z,54.61
2023-08-25T07:57:02.167Z,55.65
2023-08-25T07:59:28.863Z,53.35
2023-08-25T08:01:55.792Z,51.96
2023-08-25T08:04:22.605Z,50.11
2023-08-25T08:06:50.136Z,49.42
2023-08-25T08:09:16.886Z,47.24
2023-08-25T08:11:43.543Z,46.61
2023-08-25T08:14:10.306Z,43.60
2023-08-25T08:16:38.525Z,42.12
2023-08-25T08:19:06.429Z,41.95
2023-08-25T08:21:33.674Z,42.36
2023-08-25T08:24:01.933Z,43.29
2023-08-25T08:26:28.782Z,44.40
2023-08-25T08:28:55.440Z,45.02
2023-08-25T08:31:23.291Z,44.81
2023-08-25T08:33:50.147Z,42.08
2023-08-25T08:36:17.752Z,39.81
2023-08-25T08:38:44.567Z,38.54
2023-08-25T08:41:12.552Z,36.42
2023-08-25T08:43:42.684Z,37.25
2023-08-25T08:46:11.380Z,36.31
2023-08-25T08:48:38.738Z,35.17
2023-08-25T08:51:07.520Z,36.38
2023-08-25T08:53:34.522Z,36.00
2023-08-25T08:56:03.270Z,35.85
2023-08-25T08:58:31.013Z,36.27
2023-08-25T09:00:58.367Z,35.41
2023-08-25T09:03:31.309Z,35.35
2023-08-25T09:06:04.265Z,34.90
2023-08-25T09:08:36.814Z,32.87
2023-08-25T09:11:05.200Z,33.47
2023-08-25T09:13:36.115Z,34.74
2023-08-25T09:16:15.628Z,37.48
2023-08-25T09:18:42.902Z,38.71
2023-08-25T09:21:23.540Z,39.06
2023-08-25T09:24:00.383Z,39.38
2023-08-25T09:26:28.700Z,42.61
2023-08-25T09:28:58.393Z,44.23
2023-08-25T09:31:30.192Z,44.86
2023-08-25T09:34:02.852Z,44.26
2023-08-25T09:36:30.212Z,42.13
2023-08-25T09:39:00.960Z,39.91
2023-08-25T09:41:30.293Z,39.52
2023-08-25T09:44:01.887Z,40.35
2023-08-25T09:46:33.526Z,41.11
2023-08-25T09:49:08.244Z,40.40
2023-08-25T09:51:43.875Z,38.88
2023-08-25T09:54:17.157Z,37.80
2023-08-25T09:56:47.621Z,38.91
2023-08-25T09:59:16.090Z,38.58
2023-08-25T10:01:47.022Z,37.93
2023-08-25T10:04:18.218Z,37.61
2023-08-25T10:06:44.879Z,36.78
2023-08-25T10:09:11.755Z,35.85
2023-08-25T10:11:41.580Z,35.00
2023-08-25T10:14:11.581Z,34.91
2023-08-25T10:16:51.840Z,35.48
2023-08-25T10:19:26.255Z,36.78
2023-08-25T10:21:54.305Z,38.04
2023-08-25T10:24:22.653Z,39.92
2023-08-25T10:26:51.877Z,40.35
2023-08-25T10:29:23.541Z,41.25
2023-08-25T10:31:53.260Z,40.73
2023-08-25T10:34:43.022Z,41.02
2023-08-25T10:37:14.516Z,39.68
2023-08-25T10:39:53.423Z,39.62
2023-08-25T10:42:31.891Z,39.68
2023-08-25T10:45:09.909Z,39.81
2023-08-25T10:47:46.578Z,39.96
2023-08-25T10:50:14.975Z,40.83
2023-08-25T10:52:45.557Z,39.31
2023-08-25T10:55:33.122Z,38.47
2023-08-25T10:58:11.091Z,39.14
2023-08-25T11:00:44.516Z,38.90
2023-08-25T11:03:11.858Z,39.10
2023-08-25T11:05:44.881Z,38.46
2023-08-25T11:08:29.054Z,40.25
2023-08-25T11:11:13.771Z,40.87
2023-08-25T11:13:41.909Z,42.38
2023-08-25T11:16:11.208Z,42.14
2023-08-25T11:18:40.688Z,42.55
2023-08-25T11:21:07.383Z,41.90
2023-08-25T11:23:42.644Z,41.48
2023-08-25T11:26:09.899Z,42.59
2023-08-25T11:28:37.450Z,42.20
2023-08-25T11:31:05.054Z,41.71
2023-08-25T11:33:35.455Z,41.82
2023-08-25T11:36:04.946Z,42.46
2023-08-25T11:38:34.942Z,39.41
2023-08-25T11:41:01.612Z,40.27
2023-08-25T11:43:34.069Z,41.74
2023-08-25T11:46:01.616Z,38.28
2023-08-25T11:48:28.312Z,37.75
2023-08-25T11:50:54.965Z,38.09
2023-08-25T11:53:22.088Z,39.25
2023-08-25T11:56:07.346Z,39.88
2023-08-25T11:58:35.700Z,34.22
2023-08-25T12:01:05.849Z,33.65
2023-08-25T12:03:34.744Z,32.80
2023-08-25T12:06:06.401Z,34.31
2023-08-25T12:08:34.725Z,32.20
2023-08-25T12:11:02.063Z,32.26
2023-08-25T12:13:31.242Z,32.31
2023-08-25T12:15:58.340Z,32.96
2023-08-25T12:18:33.932Z,33.92
2023-08-25T12:21:02.279Z,31.91
2023-08-25T12:23:39.779Z,31.53
2023-08-25T12:26:09.493Z,31.08
2023-08-25T12:28:36.427Z,32.00
2023-08-25T12:31:05.288Z,30.54
2023-08-25T12:33:32.682Z,30.38
2023-08-25T12:36:00.140Z,30.80
2023-08-25T12:38:27.503Z,31.24
2023-08-25T12:40:54.288Z,30.73
2023-08-25T12:43:21.165Z,30.52
2023-08-25T12:45:49.385Z,30.59
2023-08-25T12:48:17.138Z,31.14
2023-08-25T12:50:43.905Z,31.45
2023-08-25T12:53:10.701Z,31.31
2023-08-25T12:55:37.403Z,31.76
2023-08-25T12:58:04.575Z,31.70
2023-08-25T13:00:31.437Z,28.94
2023-08-25T13:02:58.643Z,29.44
2023-08-25T13:05:26.255Z,28.87
2023-08-25T13:07:53.477Z,28.67
2023-08-25T13:10:20.404Z,29.59
2023-08-25T13:12:47.216Z,30.42
2023-08-25T13:15:14.115Z,29.98
2023-08-25T13:17:41.736Z,30.16
2023-08-25T13:20:08.913Z,30.01
2023-08-25T13:22:35.575Z,29.26
2023-08-25T13:25:02.336Z,29.83
2023-08-25T13:27:29.359Z,29.94
2023-08-25T13:29:56.262Z,28.31
2023-08-25T13:32:23.178Z,28.20
2023-08-25T13:34:49.900Z,27.62
2023-08-25T13:37:18.261Z,27.95
2023-08-25T13:39:45.107Z,27.64
2023-08-25T13:42:13.193Z,27.56
2023-08-25T13:44:40.110Z,27.55
2023-08-25T13:47:09.813Z,27.84
2023-08-25T13:49:37.896Z,28.22
2023-08-25T13:52:04.841Z,26.08
2023-08-25T13:54:32.075Z,27.92
2023-08-25T13:56:59.380Z,29.24
2023-08-25T13:59:26.716Z,30.02
2023-08-25T14:01:53.512Z,30.69
2023-08-25T14:04:20.238Z,31.54
2023-08-25T14:06:46.961Z,31.94
2023-08-25T14:09:13.771Z,32.09
2023-08-25T14:11:40.438Z,30.50
2023-08-25T14:14:07.161Z,29.31
2023-08-25T14:16:35.709Z,29.76
2023-08-25T14:19:03.215Z,30.30
2023-08-25T14:21:29.849Z,30.70
2023-08-25T14:23:58.020Z,30.82
2023-08-25T14:26:27.391Z,30.16
2023-08-25T14:28:54.229Z,31.87
2023-08-25T14:31:20.894Z,32.12
2023-08-25T14:33:47.624Z,32.29
2023-08-25T14:36:14.764Z,31.96
2023-08-25T14:38:41.478Z,32.08
2023-08-25T14:41:08.457Z,32.76
2023-08-25T14:43:35.405Z,32.49
2023-08-25T14:46:02.422Z,33.05
2023-08-25T14:48:29.188Z,32.73
2023-08-25T14:51:01.156Z,33.74
2023-08-25T14:53:28.302Z,33.18
2023-08-25T14:55:55.381Z,34.26
2023-08-25T14:58:22.963Z,34.04
2023-08-25T15:00:55.990Z,33.15
2023-08-25T15:03:23.216Z,33.37
2023-08-25T15:05:56.971Z,33.43
2023-08-25T15:08:25.608Z,34.66
2023-08-25T15:10:52.344Z,34.47
2023-08-25T15:13:19.040Z,34.09
2023-08-25T15:15:46.333Z,35.01
2023-08-25T15:18:13.432Z,34.16
2023-08-25T15:20:41.114Z,33.41
2023-08-25T15:23:08.142Z,34.05
2023-08-25T15:25:34.814Z,35.02
2023-08-25T15:28:01.460Z,36.24
2023-08-25T15:30:28.094Z,37.16
2023-08-25T15:32:54.826Z,37.64
2023-08-25T15:35:23.281Z,38.24
2023-08-25T15:37:50.421Z,39.18
2023-08-25T15:40:19.318Z,40.11
2023-08-25T15:42:45.942Z,40.74
2023-08-25T15:45:12.570Z,41.33
2023-08-25T15:47:39.289Z,42.03
2023-08-25T15:50:07.160Z,42.05
2023-08-25T15:52:33.845Z,42.82
2023-08-25T15:55:00.483Z,43.23
2023-08-25T15:57:40.898Z,44.50
2023-08-25T16:00:09.705Z,44.78
2023-08-25T16:02:36.411Z,45.87
2023-08-25T16:05:03.130Z,45.83
2023-08-25T16:07:29.767Z,47.46
2023-08-25T16:09:56.480Z,49.68
2023-08-25T16:12:24.268Z,50.33
2023-08-25T16:14:50.917Z,50.94
2023-08-25T16:17:17.544Z,51.22
2023-08-25T16:19:44.181Z,51.84
2023-08-25T16:22:10.870Z,53.11
2023-08-25T16:24:38.398Z,54.07
2023-08-25T16:27:05.271Z,53.13
2023-08-25T16:29:31.937Z,53.49
2023-08-25T16:31:58.577Z,52.34
2023-08-25T16:34:25.249Z,51.68
2023-08-25T16:36:51.937Z,50.37
2023-08-25T16:39:18.577Z,51.36
2023-08-25T16:41:45.216Z,53.28
2023-08-25T16:44:12.049Z,57.40
2023-08-25T16:46:38.938Z,56.58
2023-08-25T16:49:05.889Z,57.29
2023-08-25T16:51:32.554Z,58.56
2023-08-25T16:53:59.344Z,60.38
2023-08-25T16:56:26.077Z,61.14
2023-08-25T16:58:54.141Z,60.23
2023-08-25T17:01:21.018Z,59.39
2023-08-25T17:03:52.459Z,60.03
2023-08-25T17:06:20.109Z,61.49
2023-08-25T17:08:47.150Z,63.85
2023-08-25T17:11:14.805Z,64.56
2023-08-25T17:13:44.594Z,61.88
2023-08-25T17:16:12.862Z,61.47
2023-08-25T17:18:39.714Z,61.35
2023-08-25T17:21:06.548Z,62.57
2023-08-25T17:23:33.669Z,62.77
2023-08-25T17:26:00.583Z,63.35
2023-08-25T17:28:30.804Z,63.56
2023-08-25T17:31:11.335Z,64.44
2023-08-25T17:33:38.714Z,65.66
2023-08-25T17:36:07.916Z,65.77
2023-08-25T17:38:35.418Z,65.51
2023-08-25T17:41:07.769Z,64.97
2023-08-25T17:43:35.477Z,64.97
2023-08-25T17:46:04.791Z,65.14
2023-08-25T17:48:33.683Z,64.98
2023-08-25T17:51:01.099Z,64.98
2023-08-25T17:53:28.582Z,65.47
2023-08-25T17:55:57.338Z,66.21
2023-08-25T17:58:24.696Z,66.69
2023-08-25T18:01:02.380Z,66.72
2023-08-25T18:03:29.189Z,66.95
2023-08-25T18:05:55.904Z,67.13
2023-08-25T18:08:22.694Z,68.09
2023-08-25T18:10:50.033Z,68.46
2023-08-25T18:13:16.657Z,68.00
2023-08-25T18:15:43.335Z,67.59
2023-08-25T18:18:10.053Z,66.51
2023-08-25T18:20:36.712Z,67.47
2023-08-25T18:23:03.847Z,67.09
2023-08-25T18:25:30.652Z,67.15
2023-08-25T18:27:57.284Z,67.05
2023-08-25T18:30:26.939Z,67.93
2023-08-25T18:32:54.204Z,67.88
2023-08-25T18:35:21.268Z,65.84
2023-08-25T18:37:47.937Z,64.31
2023-08-25T18:40:14.724Z,63.44
2023-08-25T18:42:41.455Z,63.60
2023-08-25T18:45:08.647Z,63.22
2023-08-25T18:47:35.387Z,63.57
2023-08-25T18:50:02.122Z,63.32
2023-08-25T18:52:28.877Z,64.49
2023-08-25T18:54:55.554Z,64.44
2023-08-25T18:57:26.589Z,66.87
2023-08-25T18:59:54.037Z,69.09
2023-08-25T19:02:21.677Z,69.17
2023-08-25T19:04:48.481Z,70.92
2023-08-25T19:07:15.422Z,72.01
2023-08-25T19:09:47.617Z,71.99
2023-08-25T19:12:15.986Z,71.40
2023-08-25T19:14:43.080Z,72.45
2023-08-25T19:17:09.784Z,74.14
2023-08-25T19:19:38.203Z,73.28
2023-08-25T19:22:06.606Z,74.31
2023-08-25T19:24:33.992Z,74.32
2023-08-25T19:27:01.662Z,75.37
2023-08-25T19:29:28.374Z,74.47
2023-08-25T19:31:54.991Z,73.47
2023-08-25T19:34:21.745Z,73.84
2023-08-25T19:36:48.483Z,74.01
2023-08-25T19:39:15.357Z,72.67
2023-08-25T19:41:42.332Z,71.32
2023-08-25T19:44:09.444Z,73.35
2023-08-25T19:46:36.407Z,72.60
2023-08-25T19:49:04.877Z,76.57
2023-08-25T19:51:31.573Z,76.93
2023-08-25T19:53:58.432Z,77.44
2023-08-25T19:56:25.348Z,78.35
2023-08-25T19:58:52.850Z,80.25
2023-08-25T20:01:20.174Z,82.12
2023-08-25T20:03:47.592Z,78.90
2023-08-25T20:06:14.527Z,73.01
2023-08-25T20:08:41.183Z,71.83
2023-08-25T20:11:08.803Z,75.10
2023-08-25T20:13:37.400Z,79.26
2023-08-25T20:16:04.487Z,82.31
2023-08-25T20:18:31.236Z,84.31
2023-08-25T20:20:58.523Z,87.10
2023-08-25T20:23:25.546Z,91.49
2023-08-25T20:25:55.673Z,91.74
2023-08-25T20:28:22.936Z,91.10
2023-08-25T20:30:49.631Z,90.65
2023-08-25T20:33:17.972Z,90.45
2023-08-25T20:35:46.050Z,90.77
2023-08-25T20:38:13.582Z,88.26
2023-08-25T20:40:44.393Z,89.26
2023-08-25T20:43:14.006Z,89.23
2023-08-25T20:45:44.147Z,91.70
2023-08-25T20:48:11.156Z,94.12
2023-08-25T20:50:37.919Z,93.76
2023-08-25T20:53:04.907Z,86.75
2023-08-25T20:55:31.629Z,84.09
2023-08-25T20:57:58.329Z,86.05
2023-08-25T21:00:25.217Z,88.21
2023-08-25T21:02:51.954Z,92.97
2023-08-25T21:05:18.693Z,94.30
2023-08-25T21:07:45.414Z,92.80
2023-08-25T21:10:12.181Z,95.39
2023-08-25T21:12:39.057Z,91.84
2023-08-25T21:15:07.338Z,92.17
2023-08-25T21:17:34.446Z,90.27
2023-08-25T21:20:01.234Z,86.50
2023-08-25T21:22:27.857Z,85.75
2023-08-25T21:24:54.544Z,77.35
2023-08-25T21:27:21.114Z,77.05
2023-08-25T21:29:48.181Z,77.36
2023-08-25T21:32:14.910Z,80.00
2023-08-25T21:34:41.668Z,84.17
2023-08-25T21:37:08.485Z,88.03
2023-08-25T21:39:35.182Z,90.96
2023-08-25T21:42:01.842Z,89.13
2023-08-25T21:44:28.523Z,87.28
2023-08-25T21:46:55.165Z,87.23
2023-08-25T21:49:21.757Z,88.92
2023-08-25T21:51:48.443Z,90.29
2023-08-25T21:54:14.965Z,89.70
2023-08-25T21:56:41.626Z,90.53
2023-08-25T21:59:08.234Z,89.44
2023-08-25T22:01:36.724Z,91.25
2023-08-25T22:04:04.641Z,91.19
2023-08-25T22:06:33.213Z,92.39
2023-08-25T22:08:59.954Z,92.23
2023-08-25T22:11:26.677Z,93.78
2023-08-25T22:13:53.295Z,95.85
2023-08-25T22:16:19.990Z,97.17
2023-08-25T22:18:46.866Z,96.71
2023-08-25T22:21:13.558Z,97.00
2023-08-25T22:23:40.746Z,97.92
2023-08-25T22:26:07.418Z,97.76
2023-08-25T22:28:34.064Z,97.06
2023-08-25T22:31:00.606Z,97.69
2023-08-25T22:35:59.097Z,100.00
2023-08-25T22:38:25.746Z,99.79
2023-08-25T22:40:54.383Z,99.57
2023-08-25T22:43:22.601Z,98.35
2023-08-25T22:45:49.338Z,95.78
2023-08-25T22:48:17.657Z,96.97
2023-08-25T22:50:46.244Z,97.64
2023-08-25T22:53:13.020Z,99.06
2023-08-25T22:55:43.497Z,98.76
2023-08-25T22:58:10.363Z,98.21
2023-08-25T23:00:37.013Z,98.30
2023-08-25T23:03:04.943Z,99.61
2023-08-25T23:05:38.993Z,98.05
2023-08-25T23:08:06.038Z,97.17
2023-08-25T23:10:39.678Z,97.72
2023-08-25T23:13:08.655Z,97.77
2023-08-25T23:15:36.450Z,97.67
2023-08-25T23:18:05.170Z,95.45
2023-08-25T23:20:32.160Z,96.42
2023-08-25T23:22:58.816Z,92.35
2023-08-25T23:25:25.340Z,94.52
2023-08-25T23:27:52.050Z,95.46
2023-08-25T23:30:18.939Z,92.45
2023-08-25T23:32:46.080Z,93.45
2023-08-25T23:35:12.893Z,92.55
2023-08-25T23:37:39.605Z,95.00
2023-08-25T23:40:08.413Z,96.94
2023-08-25T23:42:35.333Z,95.55
2023-08-25T23:45:02.150Z,96.52
2023-08-25T23:47:28.881Z,96.86
2023-08-25T23:49:55.539Z,96.48
2023-08-25T23:52:22.125Z,96.86
2023-08-25T23:54:48.914Z,96.39
2023-08-25T23:57:15.620Z,95.79
2023-08-25T23:59:42.336Z,96.89
